Fort Worth - NOAA's Hourly Summary for Saturday, August 29, 2026
Hour Temp
(f)
RH
(%)
Solar Rad.
(MJ/m2)
Rainfall
(in)
Wind
(mph)
Battery
(volts)
8/29/2026 12:00 AM 89 37 0 0 0.98 0
8/29/2026 1:00 AM 87 43 0 0 0.45 0
8/29/2026 2:00 AM 85 48 0 0 0.01 0
8/29/2026 3:00 AM 83 53 0 0 0 0
8/29/2026 4:00 AM 82 57 0 0 1.41 0
8/29/2026 5:00 AM 80 61 0 0 0.82 0
8/29/2026 6:00 AM 78 66 0 0 0.16 0
8/29/2026 7:00 AM 78 68 0.08 0 0.08 0
8/29/2026 8:00 AM 81 61 0.56 0 0 0
8/29/2026 9:00 AM 85 51 1.19 0 0 0
8/29/2026 10:00 AM 89 43 1.79 0 0.6 0
8/29/2026 11:00 AM 94 35 2.29 0 1.33 0
8/29/2026 12:00 PM 97 28 2.63 0 2.42 0
8/29/2026 1:00 PM 99 26 2.68 0 3.42 0
8/29/2026 2:00 PM 100 22 2.57 0 2.72 0
8/29/2026 3:00 PM 100 21 2.27 0 4.29 0
8/29/2026 4:00 PM 101 20 1.98 0 3.53 0
8/29/2026 5:00 PM 101 19 1.46 0 5.83 0
8/29/2026 6:00 PM 100 19 0.67 0 2.27 0
8/29/2026 7:00 PM 99 20 0.11 0 1.49 0
8/29/2026 8:00 PM 96 23 0.01 0 0.98 0
8/29/2026 9:00 PM 93 26 0 0 0.75 0
8/29/2026 10:00 PM 92 29 0 0 0.31 0
8/29/2026 11:00 PM 90 32 0 0 1.85 0
Data Summary 90 37 20.29 0.00 1.49 0.00